Aérodrome :
LOGIN :

S'inscrire | Disclaimer

   EN    FR    IT 

 










Légende :    VFR   VFR Marginal   IFR   IFR Intensif   IFR Très Intensif
Visi : 
Plafond : 
>= 8 km
>= 3000ft
5 à 8 km
1000 à 3000 ft
1500m à 5 km
500 à 1000 ft
800 à 1500m
200 à 500 ft
< 800m
< 200 ft
Symboles :   Orages  Brouillard  Fortes neiges  Fortes précipitations  Vent > 20 kt
SIGMETs :   Divers  Orages  Givrage  Turbulence  Onde Orograph.  Cendres Volcan.






- Altitude de l'aérodrome : 656 ft


UUBC - Grabtsevo

DERNIER METAR :
  • 221430Z 28003MPS 9999 BKN010 OVC033 00/M01 Q0995 R31/290150 NOSIG RMK QFE730/0973

METARs EXPIRÉS :
  • 221400Z 27005MPS 8000 BKN020 01/M01 Q0995 R31/290150 NOSIG RMK QFE730/0973
  • 221330Z 27004MPS 9999 BKN020 02/M02 Q0995 R31/290150 NOSIG RMK QFE730/0973
  • 221300Z 27004MPS 9999 BKN016 02/M01 Q0995 R31/290150 NOSIG RMK QFE730/0973
  • 221230Z 26004MPS 9999 BKN016 02/M01 Q0995 R31/290150 TEMPO 0500 +SHSN OVC006CB RMK QFE730/0973
  • 221200Z 27005MPS 6000 -SHSN BKN016CB 01/M01 Q0996 R31/290150 TEMPO 0500 +SHSN OVC006CB RMK QFE730/0974

TAF TAF UUBC
Valide du 22 à 15h jusqu'au 23 à 00h UTC


221342Z 2215/2224 28005G10MPS 9000 BKN011
TEMPO 2215/2224 32007G12MPS 3500 -SHSN BKN008 OVC010CB



MET'MAP, la Météo Aéronautique d'un coup d'oeil ! - Copyright ORBIFLY Décembre 2007 - Disclaimer

ORBIFLY MET'MAP TEAM :

Programmation & Développement : Alexandra Zaïnal
Sur une idée originale de : Baudouin d'Aumeries
Assistance à la programmation : Marc-Olivier Méhu
Soutien technique & logistique : Manuel Goepfert

Contact : metmap@orbifly.com




SOURCES & CREDITS :

   NOAA